Archival Weather

Luke Afb

Glendale, Arizona (KLUF)

Report from: Friday, April 19, 2024 1:55 PM MST
Current time: Monday, June 24, 2024 1:58 AM MST

Current weather – Weather history – Daily summaries
Weather forecast

Temperature31.7°C (89.1°F)
Heat index29.5°C (85.2°F)
Dew point-8.4°C (16.9°F)
Winds 12 kts (6.2 m/s, 13.8 mph) South (190°)
Visibility10 mi. (16.1 km)
Clouds Few clouds 17,000 ft. (5,182 m)
Altimeter29.78 in.Hg (1008 mB)
Relative humidity7 %
Density altitude2,168 ft. (661 m)
Sea-level pressure100.7 kPa (1007 mB, 29.75 in.Hg)
Remarks System requires maintenance
Automated weather observing station with precipitation discriminator
Pressure falling
Flight conditions Visual Meteorological Conditions
Raw dataKLUF 192055Z 19012KT 10SM FEW170 32/M08 A2978 RMK AO2A SLP073 T03171084 57022 $
An error has occurred. This application may no longer respond until reloaded. Reload 🗙